createdAt,value
2022-10-25T00:00:06.429Z,5.63
2022-10-25T00:03:16.593Z,11.00
2022-10-25T00:06:20.984Z,14.43
2022-10-25T00:09:28.198Z,22.13
2022-10-25T00:12:32.439Z,13.23
2022-10-25T00:15:36.836Z,27.23
2022-10-25T00:18:41.279Z,14.00
2022-10-25T00:21:45.757Z,9.63
2022-10-25T00:24:50.140Z,12.75
2022-10-25T00:27:54.473Z,11.27
2022-10-25T00:31:07.302Z,11.07
2022-10-25T00:34:12.526Z,15.68
2022-10-25T00:37:16.958Z,13.25
2022-10-25T00:40:21.396Z,17.65
2022-10-25T00:43:38.012Z,9.93
2022-10-25T00:46:42.520Z,21.73
2022-10-25T00:49:58.870Z,14.25
2022-10-25T00:53:15.102Z,7.35
2022-10-25T00:59:29.491Z,13.07
2022-10-25T01:02:34.288Z,19.23
2022-10-25T01:05:39.290Z,10.98
2022-10-25T01:08:45.237Z,10.23
2022-10-25T01:11:50.503Z,14.75
2022-10-25T01:14:56.722Z,14.75
2022-10-25T01:18:24.796Z,9.77
2022-10-25T01:21:34.827Z,13.10
2022-10-25T01:25:15.580Z,9.90
2022-10-25T01:28:35.198Z,10.02
2022-10-25T01:32:15.048Z,9.48
2022-10-25T01:35:27.849Z,14.27
2022-10-25T01:38:49.818Z,14.57
2022-10-25T01:42:12.613Z,11.57
2022-10-25T01:45:24.790Z,7.15
2022-10-25T01:48:38.061Z,8.27
2022-10-25T01:51:42.618Z,12.05
2022-10-25T01:54:46.843Z,14.57
2022-10-25T01:58:24.153Z,14.00
2022-10-25T02:05:32.316Z,10.48
2022-10-25T02:08:42.881Z,13.15
2022-10-25T02:11:47.672Z,15.38
2022-10-25T02:15:04.883Z,10.80
2022-10-25T02:18:15.504Z,9.55
2022-10-25T02:21:21.162Z,9.45
2022-10-25T02:24:33.349Z,5.57
2022-10-25T02:27:43.264Z,7.53
2022-10-25T02:30:51.302Z,7.82
2022-10-25T02:33:55.764Z,6.70
2022-10-25T02:37:03.194Z,7.60
2022-10-25T02:40:08.405Z,10.95
2022-10-25T02:43:12.791Z,7.80
2022-10-25T02:46:21.391Z,13.57
2022-10-25T02:49:25.647Z,6.65
2022-10-25T02:52:30.032Z,9.98
2022-10-25T02:55:34.526Z,14.15
2022-10-25T02:58:40.623Z,15.77
2022-10-25T03:01:45.165Z,18.10
2022-10-25T03:04:54.545Z,8.90
2022-10-25T03:07:58.936Z,8.35
2022-10-25T03:11:03.647Z,16.67
2022-10-25T03:14:08.184Z,8.05
2022-10-25T03:17:12.547Z,7.55
2022-10-25T03:20:17.155Z,6.10
2022-10-25T03:23:21.602Z,7.07
2022-10-25T03:26:26.348Z,4.32
2022-10-25T03:29:33.103Z,5.50
2022-10-25T03:32:38.378Z,3.72
2022-10-25T03:35:42.834Z,9.25
2022-10-25T03:38:47.152Z,3.55
2022-10-25T03:41:51.512Z,2.58
2022-10-25T03:44:56.135Z,4.70
2022-10-25T03:48:02.826Z,6.05
2022-10-25T03:51:07.512Z,6.05
2022-10-25T03:54:11.809Z,5.95
2022-10-25T03:57:16.443Z,11.43
2022-10-25T04:00:21.089Z,6.85
2022-10-25T04:03:25.564Z,10.05
2022-10-25T04:06:30.806Z,4.80
2022-10-25T04:09:35.432Z,10.98
2022-10-25T04:12:39.780Z,13.70
2022-10-25T04:15:44.171Z,6.95
2022-10-25T04:18:48.542Z,9.40
2022-10-25T04:21:52.673Z,6.05
2022-10-25T04:24:57.317Z,6.80
2022-10-25T04:28:01.662Z,8.50
2022-10-25T04:31:06.036Z,18.95
2022-10-25T04:34:10.234Z,5.03
2022-10-25T04:37:14.594Z,6.00
2022-10-25T04:40:23.960Z,4.50
2022-10-25T04:43:30.185Z,4.72
2022-10-25T04:46:34.484Z,27.13
2022-10-25T04:49:39.775Z,8.95
2022-10-25T04:52:44.121Z,23.48
2022-10-25T04:55:58.748Z,5.43
2022-10-25T04:59:06.190Z,5.85
2022-10-25T05:02:10.664Z,5.55
2022-10-25T05:05:15.038Z,5.00
2022-10-25T05:08:19.394Z,3.75
2022-10-25T05:11:27.197Z,13.93
2022-10-25T05:14:31.461Z,7.95
2022-10-25T05:17:35.848Z,11.23
2022-10-25T05:20:40.236Z,10.30
2022-10-25T05:23:45.030Z,4.38
2022-10-25T05:26:49.328Z,7.65
2022-10-25T05:29:59.774Z,6.70
2022-10-25T05:33:04.926Z,6.55
2022-10-25T05:36:09.594Z,5.07
2022-10-25T05:39:14.139Z,5.05
2022-10-25T05:42:18.686Z,13.02
2022-10-25T05:45:23.209Z,19.40
2022-10-25T05:48:27.578Z,11.05
2022-10-25T05:51:35.638Z,17.63
2022-10-25T05:54:40.479Z,19.48
2022-10-25T05:57:51.170Z,17.80
2022-10-25T06:00:55.499Z,8.48
2022-10-25T06:04:00.299Z,44.33
2022-10-25T06:07:04.975Z,18.75
2022-10-25T06:10:10.715Z,18.10
2022-10-25T06:13:16.374Z,18.30
2022-10-25T06:16:21.865Z,11.05
2022-10-25T06:19:26.168Z,34.28
2022-10-25T06:22:31.791Z,52.28
2022-10-25T06:25:36.311Z,64.57
2022-10-25T06:28:41.546Z,57.97
2022-10-25T06:31:46.120Z,16.75
2022-10-25T06:34:50.542Z,12.25
2022-10-25T06:37:54.857Z,29.20
2022-10-25T06:41:03.945Z,13.32
2022-10-25T06:44:08.945Z,17.67
2022-10-25T06:47:17.451Z,10.73
2022-10-25T06:50:22.374Z,16.90
2022-10-25T06:53:26.864Z,16.42
2022-10-25T06:56:31.421Z,17.27
2022-10-25T06:59:35.932Z,12.57
2022-10-25T07:02:40.290Z,85.65
2022-10-25T07:05:44.621Z,51.47
2022-10-25T07:08:49.450Z,47.72
2022-10-25T07:11:53.726Z,59.40
2022-10-25T07:14:57.942Z,78.03
2022-10-25T07:18:03.596Z,58.55
2022-10-25T07:21:14.057Z,65.70
2022-10-25T07:24:18.755Z,89.15
2022-10-25T07:27:23.308Z,44.17
2022-10-25T07:30:27.767Z,60.28
2022-10-25T07:33:32.956Z,46.03
2022-10-25T07:36:37.456Z,124.28
2022-10-25T07:39:43.181Z,114.65
2022-10-25T07:42:50.056Z,65.07
2022-10-25T07:45:54.912Z,64.82
2022-10-25T07:48:59.340Z,56.67
2022-10-25T07:52:03.937Z,45.13
2022-10-25T07:55:09.147Z,35.83
2022-10-25T07:58:13.564Z,45.67
2022-10-25T08:01:29.401Z,63.63
2022-10-25T08:04:33.645Z,35.15
2022-10-25T08:10:45.582Z,41.05
2022-10-25T08:13:51.774Z,58.38
2022-10-25T08:16:56.264Z,63.75
2022-10-25T08:20:01.160Z,18.33
2022-10-25T08:23:07.979Z,57.38
2022-10-25T08:26:12.430Z,21.25
2022-10-25T08:29:17.121Z,35.80
2022-10-25T08:32:22.944Z,24.25
2022-10-25T08:35:27.535Z,19.30
2022-10-25T08:38:32.331Z,25.48
2022-10-25T08:41:54.568Z,49.55
2022-10-25T08:45:26.624Z,101.63
2022-10-25T08:48:37.699Z,65.38
2022-10-25T08:51:46.410Z,93.40
2022-10-25T08:54:51.639Z,80.25
2022-10-25T08:57:57.913Z,56.13
2022-10-25T09:01:08.770Z,82.82
2022-10-25T09:04:13.356Z,87.40
2022-10-25T09:08:03.757Z,79.20
2022-10-25T09:11:16.340Z,76.22
2022-10-25T09:14:44.464Z,82.88
2022-10-25T09:17:54.349Z,117.68
2022-10-25T09:21:02.372Z,95.25
2022-10-25T09:24:22.518Z,46.65
2022-10-25T09:27:37.398Z,82.20
2022-10-25T09:30:45.053Z,64.30
2022-10-25T09:33:52.971Z,45.17
2022-10-25T09:37:05.949Z,43.33
2022-10-25T09:40:24.116Z,82.63
2022-10-25T09:43:55.742Z,20.42
2022-10-25T09:47:06.387Z,77.80
2022-10-25T09:50:20.380Z,85.90
2022-10-25T09:53:24.806Z,153.10
2022-10-25T09:56:29.132Z,129.55
2022-10-25T09:59:33.606Z,130.48
2022-10-25T10:02:38.335Z,163.77
2022-10-25T10:05:51.627Z,75.27
2022-10-25T10:09:05.617Z,74.93
2022-10-25T10:12:21.735Z,64.75
2022-10-25T10:15:39.555Z,40.15
2022-10-25T10:18:45.254Z,25.83
2022-10-25T10:21:51.211Z,10.05
2022-10-25T10:25:02.172Z,16.45
2022-10-25T10:28:15.817Z,22.52
2022-10-25T10:31:21.057Z,16.50
2022-10-25T10:34:28.432Z,19.38
2022-10-25T10:37:34.745Z,8.82
2022-10-25T10:40:39.259Z,9.43
2022-10-25T10:43:43.714Z,14.20
2022-10-25T10:46:50.114Z,9.80
2022-10-25T10:49:54.458Z,10.18
2022-10-25T10:53:30.380Z,21.67
2022-10-25T10:56:35.211Z,288.53
2022-10-25T10:59:46.672Z,17.93
2022-10-25T11:02:51.783Z,27.95
2022-10-25T11:09:14.184Z,10.18
2022-10-25T11:12:19.634Z,20.27
2022-10-25T11:15:23.897Z,17.05
2022-10-25T11:18:39.397Z,16.23
2022-10-25T11:22:06.442Z,9.63
2022-10-25T11:25:13.936Z,7.88
2022-10-25T11:28:36.244Z,7.90
2022-10-25T11:31:59.173Z,8.95
2022-10-25T11:35:34.167Z,8.13
2022-10-25T11:39:01.997Z,38.70
2022-10-25T11:42:31.250Z,27.02
2022-10-25T11:45:57.205Z,29.23
2022-10-25T11:49:28.003Z,28.40
2022-10-25T11:52:44.920Z,16.17
2022-10-25T11:56:15.635Z,10.82
2022-10-25T11:59:35.168Z,9.50
2022-10-25T12:02:54.787Z,8.48
2022-10-25T12:06:25.740Z,9.55
2022-10-25T12:10:02.533Z,13.02
2022-10-25T12:16:15.581Z,8.10
2022-10-25T12:19:28.394Z,34.63
2022-10-25T12:22:40.652Z,30.92
2022-10-25T12:25:49.462Z,9.75
2022-10-25T12:28:54.023Z,10.52
2022-10-25T12:32:02.155Z,10.10
2022-10-25T12:35:19.660Z,10.77
2022-10-25T12:38:38.113Z,8.25
2022-10-25T12:41:47.553Z,9.30
2022-10-25T12:45:14.525Z,7.97
2022-10-25T12:48:57.235Z,24.17
2022-10-25T12:52:29.378Z,28.38
2022-10-25T12:55:45.281Z,11.20
2022-10-25T12:58:55.515Z,16.40
2022-10-25T13:02:06.243Z,11.43
2022-10-25T13:05:13.298Z,10.25
2022-10-25T13:08:23.604Z,8.55
2022-10-25T13:11:40.519Z,6.07
2022-10-25T13:14:55.393Z,6.35
2022-10-25T13:18:06.107Z,5.20
2022-10-25T13:21:16.355Z,6.85
2022-10-25T13:24:42.158Z,6.85
2022-10-25T13:28:18.002Z,6.68
2022-10-25T13:31:36.983Z,11.13
2022-10-25T13:34:41.486Z,6.28
2022-10-25T13:37:46.653Z,6.93
2022-10-25T13:41:09.600Z,8.05
2022-10-25T13:44:27.482Z,6.00
2022-10-25T13:47:42.649Z,4.97
2022-10-25T13:51:09.826Z,8.13
2022-10-25T13:54:14.556Z,6.68
2022-10-25T13:57:46.235Z,5.60
2022-10-25T14:00:53.728Z,6.55
2022-10-25T14:04:21.593Z,7.18
2022-10-25T14:07:56.353Z,5.38
2022-10-25T14:11:38.884Z,5.68
2022-10-25T14:14:49.123Z,11.68
2022-10-25T14:17:54.030Z,9.70
2022-10-25T14:21:06.172Z,4.68
2022-10-25T14:24:15.677Z,4.97
2022-10-25T14:27:35.855Z,5.20
2022-10-25T14:30:51.540Z,6.10
2022-10-25T14:33:57.336Z,4.60
2022-10-25T14:40:37.117Z,4.93
2022-10-25T14:43:44.487Z,5.60
2022-10-25T14:46:48.800Z,4.28
2022-10-25T14:49:53.089Z,5.60
2022-10-25T14:53:00.455Z,4.13
2022-10-25T14:56:07.083Z,4.82
2022-10-25T14:59:22.206Z,3.67
2022-10-25T15:02:33.972Z,4.35
2022-10-25T15:05:42.746Z,5.90
2022-10-25T15:08:51.615Z,4.68
2022-10-25T15:12:15.686Z,6.30
2022-10-25T15:15:41.443Z,4.60
2022-10-25T15:18:45.942Z,5.13
2022-10-25T15:21:54.509Z,6.25
2022-10-25T15:25:00.056Z,7.70
2022-10-25T15:28:16.818Z,5.70
2022-10-25T15:31:26.303Z,7.53
2022-10-25T15:34:30.999Z,8.60
2022-10-25T15:37:35.416Z,4.78
2022-10-25T15:40:40.161Z,3.85
2022-10-25T15:43:44.874Z,6.05
2022-10-25T15:46:49.885Z,4.93
2022-10-25T15:49:54.937Z,3.50
2022-10-25T15:52:59.367Z,7.20
2022-10-25T15:56:04.143Z,5.53
2022-10-25T15:59:08.955Z,7.25
2022-10-25T16:02:32.720Z,8.38
2022-10-25T16:05:39.343Z,4.28
2022-10-25T16:08:43.810Z,5.20
2022-10-25T16:11:54.947Z,4.00
2022-10-25T16:14:59.593Z,4.70
2022-10-25T16:18:04.157Z,6.15
2022-10-25T16:21:08.504Z,4.35
2022-10-25T16:24:14.068Z,4.80
2022-10-25T16:27:18.148Z,5.50
2022-10-25T16:30:25.879Z,8.02
2022-10-25T16:33:30.297Z,3.97
2022-10-25T16:36:34.884Z,3.92
2022-10-25T16:39:39.126Z,6.35
2022-10-25T16:42:44.111Z,5.45
2022-10-25T16:45:48.696Z,3.67
2022-10-25T16:48:56.961Z,5.53
2022-10-25T16:52:06.278Z,4.82
2022-10-25T16:55:11.588Z,6.80
2022-10-25T16:58:15.928Z,8.00
2022-10-25T17:01:41.228Z,13.68
2022-10-25T17:04:51.727Z,7.90
2022-10-25T17:07:58.846Z,12.30
2022-10-25T17:11:03.153Z,8.02
2022-10-25T17:14:10.435Z,19.35
2022-10-25T17:17:14.902Z,7.35
2022-10-25T17:20:19.272Z,6.65
2022-10-25T17:23:23.594Z,4.07
2022-10-25T17:26:28.067Z,5.40
2022-10-25T17:29:52.216Z,6.40
2022-10-25T17:32:56.694Z,5.00
2022-10-25T17:36:25.702Z,10.88
2022-10-25T17:39:29.975Z,6.68
2022-10-25T17:42:34.206Z,7.70
2022-10-25T17:45:38.859Z,5.32
2022-10-25T17:48:43.420Z,5.65
2022-10-25T17:51:48.974Z,6.10
2022-10-25T17:54:53.218Z,4.63
2022-10-25T17:57:57.939Z,9.07
2022-10-25T18:01:07.248Z,5.50
2022-10-25T18:04:11.784Z,5.65
2022-10-25T18:07:17.394Z,9.63
2022-10-25T18:10:22.060Z,5.35
2022-10-25T18:13:27.858Z,6.75
2022-10-25T18:19:37.842Z,7.75
2022-10-25T18:22:42.514Z,6.30
2022-10-25T18:25:54.168Z,3.72
2022-10-25T18:28:59.673Z,5.18
2022-10-25T18:32:04.206Z,5.22
2022-10-25T18:35:09.953Z,6.38
2022-10-25T18:38:17.712Z,5.40
2022-10-25T18:41:31.983Z,7.00
2022-10-25T18:44:36.543Z,4.15
2022-10-25T18:47:42.232Z,6.20
2022-10-25T18:53:57.063Z,7.80
2022-10-25T18:57:01.584Z,5.03
2022-10-25T19:00:06.897Z,10.65
2022-10-25T19:03:16.007Z,6.18
2022-10-25T19:06:20.842Z,5.57
2022-10-25T19:09:25.562Z,5.47
2022-10-25T19:12:30.274Z,5.38
2022-10-25T19:15:34.534Z,5.93
2022-10-25T19:18:39.192Z,6.43
2022-10-25T19:21:43.970Z,3.58
2022-10-25T19:24:49.082Z,8.10
2022-10-25T19:27:53.540Z,4.63
2022-10-25T19:30:57.805Z,6.45
2022-10-25T19:34:04.095Z,11.45
2022-10-25T19:37:09.745Z,5.63
2022-10-25T19:40:14.226Z,5.15
2022-10-25T19:43:19.828Z,6.55
2022-10-25T19:46:24.606Z,4.80
2022-10-25T19:49:29.688Z,6.23
2022-10-25T19:52:38.232Z,8.40
2022-10-25T19:55:42.838Z,8.57
2022-10-25T19:58:47.336Z,6.72
2022-10-25T20:01:51.757Z,6.50
2022-10-25T20:04:56.411Z,5.97
2022-10-25T20:08:00.806Z,17.13
2022-10-25T20:11:05.785Z,6.18
2022-10-25T20:14:10.723Z,10.80
2022-10-25T20:17:16.266Z,5.80
2022-10-25T20:20:20.554Z,64.68
2022-10-25T20:23:25.160Z,80.32
2022-10-25T20:26:31.899Z,59.58
2022-10-25T20:29:36.458Z,47.83
2022-10-25T20:32:41.063Z,23.75
2022-10-25T20:35:46.696Z,22.52
2022-10-25T20:38:51.038Z,11.77
2022-10-25T20:41:55.579Z,8.13
2022-10-25T20:45:00.061Z,11.60
2022-10-25T20:48:04.725Z,5.32
2022-10-25T20:51:10.569Z,5.75
2022-10-25T20:54:17.057Z,10.70
2022-10-25T20:57:21.827Z,6.53
2022-10-25T21:00:26.181Z,4.32
2022-10-25T21:03:33.638Z,7.43
2022-10-25T21:06:38.186Z,9.20
2022-10-25T21:09:47.064Z,8.13
2022-10-25T21:12:53.892Z,4.88
2022-10-25T21:15:58.837Z,4.80
2022-10-25T21:19:06.483Z,7.40
2022-10-25T21:22:10.877Z,12.77
2022-10-25T21:25:16.455Z,4.75
2022-10-25T21:28:21.032Z,3.25
2022-10-25T21:31:25.526Z,3.28
2022-10-25T21:34:29.956Z,6.60
2022-10-25T21:37:34.580Z,6.30
2022-10-25T21:40:38.992Z,3.72
2022-10-25T21:43:46.444Z,4.57
2022-10-25T21:46:51.090Z,5.07
2022-10-25T21:49:55.381Z,6.60
2022-10-25T21:52:59.873Z,6.55
2022-10-25T21:56:11.098Z,14.32
2022-10-25T21:59:15.534Z,2.88
2022-10-25T22:02:20.109Z,5.47
2022-10-25T22:05:24.497Z,6.57
2022-10-25T22:08:28.690Z,9.40
2022-10-25T22:11:36.315Z,17.42
2022-10-25T22:14:40.578Z,22.08
2022-10-25T22:17:45.083Z,17.52
2022-10-25T22:21:01.046Z,41.42
2022-10-25T22:24:09.250Z,22.00
2022-10-25T22:27:13.653Z,31.38
2022-10-25T22:30:19.120Z,14.63
2022-10-25T22:33:23.615Z,25.10
2022-10-25T22:36:30.354Z,13.45
2022-10-25T22:39:34.741Z,7.97
2022-10-25T22:42:38.986Z,16.73
2022-10-25T22:45:43.415Z,7.07
2022-10-25T22:48:47.741Z,18.50
2022-10-25T22:51:52.272Z,6.93
2022-10-25T22:54:56.652Z,4.32
2022-10-25T22:58:00.997Z,2.42
2022-10-25T23:01:08.526Z,5.40
2022-10-25T23:04:13.006Z,3.63
2022-10-25T23:07:17.548Z,5.03
2022-10-25T23:10:21.955Z,5.82
2022-10-25T23:13:26.324Z,8.18
2022-10-25T23:16:31.126Z,7.75
2022-10-25T23:19:35.357Z,8.45
2022-10-25T23:22:40.056Z,29.25
2022-10-25T23:25:44.549Z,39.28
2022-10-25T23:28:49.213Z,56.92
2022-10-25T23:31:53.423Z,18.90
2022-10-25T23:34:57.644Z,27.65
2022-10-25T23:38:03.371Z,15.60
2022-10-25T23:44:12.589Z,15.52
2022-10-25T23:47:17.029Z,14.88
2022-10-25T23:50:21.616Z,9.02
2022-10-25T23:53:26.215Z,16.40
2022-10-25T23:56:30.370Z,12.43
2022-10-25T23:59:34.958Z,5.50
